Etzikom, Canada
Current Conditions -  °F | °C
As of 6:00 PM on Monday 22 Dec 2014 (Local Time) from CYXH Reporting Station
Broken Clouds Broken Clouds  
Wind Chill: -4°   Ceiling: 9500
Heat Index:   Visibility: 15mi
Dew Point: -2°   Wind: 13mph
Humidity: 81%   Direction: 280°W
Pressure: 30.03"   Gusts: NA
Location:  49.48°N, 111.1°W
Report Text: CYXH 230100Z 28011KT 15SM BKN095 01/M02 A3003 RMK AC7 SLP196
Loading
Personal Weather Stations






























Interactive Weather Map New forecast layout! Learn more

10-Day Weather Forecast

Advertisements
Track Severe Weather on mobile